Impacts TAF Board
For situational awareness. Not to be used for flight planning purposes.
IDs:

KPHX - Phoenix/Sky Harbor, AZ, US

Issued at 0520 UTC 23 Feb 2019
Updated at 0743 UTC 23 Feb 2019
Potential Impact None Slight Moderate High
Time0651Z 23/08Z 23/09Z 23/10Z 23/11Z 23/12Z 23/13Z 23/14Z 23/15Z 23/16Z 23/17Z 23/18Z 23/19Z 23/20Z>>
Type OBS PRVL PRVL PRVL PRVL PRVL PRVL PRVL PRVL PRVL PRVL PRVL PRVL PRVL
VIS 10 >6 >6 >6 >6 >6 >6 >6 >6 >6 >6 >6 >6 >6
CIG -- -- -- -- -- -- -- -- -- -- -- -- -- --
Cover FEW FEW FEW FEW FEW FEW FEW FEW FEW FEW FEW FEW FEW FEW
FltCat VFR VFR VFR VFR VFR VFR VFR VFR VFR VFR VFR VFR VFR VFR
WX -- -- -- -- -- -- -- -- -- -- -- -- -- --
WDir 80 110 110 110 110 110 110 110 110 110 110 110 110 110
WSpd 7 5 5 5 5 5 5 5 5 5 5 5 5 5
WGst -- -- -- -- -- -- -- -- -- -- -- -- -- --
Raw TAF
KPHX 230520Z 2306/2412 11005KT P6SM FEW060 FEW250

Raw METAR
KPHX 230651Z 08007KT 10SM FEW060 04/04 A3012 RMK AO2 SLP199 T00440039 400830033
KPHX 230551Z 11008KT 10SM FEW060 05/05 A3010 RMK AO2 SLP192 60002 T00500050 10072 20050 53022
KPHX 230451Z 09007KT 10SM FEW060 06/05 A3007 RMK AO2 SLP184 T00560050

METAR Board
Radar Display
Forecast Discussion
For situational awareness. Not to be used for flight planning purposes.